createdAt,value
2022-08-16T00:00:05.152Z,83.17
2022-08-16T00:03:16.009Z,83.34
2022-08-16T00:06:00.590Z,83.77
2022-08-16T00:08:46.014Z,83.59
2022-08-16T00:11:41.133Z,83.69
2022-08-16T00:14:19.691Z,83.65
2022-08-16T00:17:18.509Z,83.51
2022-08-16T00:20:13.388Z,83.56
2022-08-16T00:23:07.227Z,83.59
2022-08-16T00:26:36.101Z,83.23
2022-08-16T00:28:39.832Z,82.61
2022-08-16T00:31:16.909Z,82.64
2022-08-16T00:34:18.264Z,82.77
2022-08-16T00:37:10.826Z,82.94
2022-08-16T00:40:03.700Z,83.04
2022-08-16T00:42:36.121Z,83.11
2022-08-16T00:45:37.329Z,83.07
2022-08-16T00:48:30.838Z,83.28
2022-08-16T00:51:05.096Z,83.31
2022-08-16T00:53:58.248Z,83.71
2022-08-16T00:56:58.301Z,84.07
2022-08-16T00:59:58.986Z,84.35
2022-08-16T01:02:34.578Z,84.40
2022-08-16T01:05:27.473Z,84.39
2022-08-16T01:08:35.905Z,84.17
2022-08-16T01:11:14.085Z,84.13
2022-08-16T01:14:08.101Z,84.59
2022-08-16T01:16:55.006Z,84.24
2022-08-16T01:19:34.464Z,84.18
2022-08-16T01:22:48.645Z,84.41
2022-08-16T01:26:00.284Z,84.79
2022-08-16T01:28:49.102Z,84.85
2022-08-16T01:31:42.468Z,84.91
2022-08-16T01:34:25.243Z,84.75
2022-08-16T01:37:05.187Z,84.90
2022-08-16T01:39:57.624Z,85.13
2022-08-16T01:42:53.920Z,84.63
2022-08-16T01:45:40.738Z,84.51
2022-08-16T01:48:36.017Z,84.47
2022-08-16T01:51:21.134Z,84.71
2022-08-16T01:54:16.013Z,85.29
2022-08-16T01:57:11.486Z,85.20
2022-08-16T01:59:55.250Z,85.49
2022-08-16T02:02:52.203Z,85.49
2022-08-16T02:05:51.793Z,85.73
2022-08-16T02:08:44.973Z,86.28
2022-08-16T02:11:48.069Z,86.25
2022-08-16T02:14:45.699Z,86.33
2022-08-16T02:17:38.679Z,86.10
2022-08-16T02:20:36.636Z,86.14
2022-08-16T02:23:35.735Z,85.82
2022-08-16T02:26:28.622Z,85.83
2022-08-16T02:29:18.606Z,85.92
2022-08-16T02:33:02.441Z,85.50
2022-08-16T02:35:29.174Z,85.31
2022-08-16T02:38:21.609Z,85.32
2022-08-16T02:41:13.844Z,85.26
2022-08-16T02:44:07.005Z,85.30
2022-08-16T02:46:49.939Z,85.50
2022-08-16T02:49:59.283Z,85.73
2022-08-16T02:52:43.788Z,85.91
2022-08-16T02:55:40.750Z,85.77
2022-08-16T02:58:35.259Z,85.82
2022-08-16T03:01:33.745Z,85.62
2022-08-16T03:04:51.914Z,85.56
2022-08-16T03:07:50.808Z,85.44
2022-08-16T03:10:43.425Z,85.23
2022-08-16T03:13:25.738Z,85.40
2022-08-16T03:16:37.661Z,86.22
2022-08-16T03:19:47.367Z,85.95
2022-08-16T03:22:30.389Z,86.38
2022-08-16T03:25:40.885Z,86.20
2022-08-16T03:28:37.838Z,85.86
2022-08-16T03:31:20.503Z,86.14
2022-08-16T03:34:07.529Z,86.13
2022-08-16T03:37:01.322Z,86.07
2022-08-16T03:39:53.632Z,86.09
2022-08-16T03:43:02.163Z,85.97
2022-08-16T03:46:04.276Z,86.22
2022-08-16T03:48:57.415Z,86.03
2022-08-16T03:51:52.014Z,85.88
2022-08-16T03:54:58.139Z,85.64
2022-08-16T03:57:55.920Z,85.07
2022-08-16T04:00:59.312Z,84.42
2022-08-16T04:03:35.577Z,84.08
2022-08-16T04:06:28.204Z,83.85
2022-08-16T04:09:20.349Z,84.09
2022-08-16T04:12:53.824Z,84.15
2022-08-16T04:15:18.813Z,84.28
2022-08-16T04:18:12.253Z,83.81
2022-08-16T04:21:04.516Z,84.06
2022-08-16T04:23:59.457Z,84.20
2022-08-16T04:26:51.901Z,84.08
2022-08-16T04:29:46.417Z,83.65
2022-08-16T04:32:21.247Z,84.05
2022-08-16T04:35:17.640Z,83.72
2022-08-16T04:38:21.290Z,83.83
2022-08-16T04:41:13.886Z,83.95
2022-08-16T04:44:32.334Z,83.98
2022-08-16T04:47:24.069Z,84.09
2022-08-16T04:50:20.046Z,84.77
2022-08-16T04:53:12.072Z,85.46
2022-08-16T04:56:11.319Z,85.46
2022-08-16T04:59:04.664Z,85.60
2022-08-16T05:01:58.463Z,85.55
2022-08-16T05:04:51.627Z,85.61
2022-08-16T05:07:23.999Z,85.66
2022-08-16T05:10:20.027Z,85.33
2022-08-16T05:13:24.689Z,85.02
2022-08-16T05:16:25.907Z,85.02
2022-08-16T05:19:11.745Z,84.86
2022-08-16T05:22:08.226Z,84.01
2022-08-16T05:25:09.492Z,83.75
2022-08-16T05:27:57.805Z,82.85
2022-08-16T05:30:51.451Z,82.70
2022-08-16T05:33:27.956Z,82.51
2022-08-16T05:36:03.617Z,82.40
2022-08-16T05:38:39.683Z,82.33
2022-08-16T05:41:22.478Z,82.22
2022-08-16T05:44:23.877Z,82.25
2022-08-16T05:47:02.988Z,81.90
2022-08-16T05:49:39.760Z,81.50
2022-08-16T05:52:32.380Z,81.68
2022-08-16T05:55:25.872Z,81.00
2022-08-16T05:58:33.291Z,81.18
2022-08-16T06:01:25.854Z,80.62
2022-08-16T06:04:36.044Z,80.28
2022-08-16T06:07:29.244Z,80.18
2022-08-16T06:10:32.357Z,79.16
2022-08-16T06:13:25.657Z,79.01
2022-08-16T06:16:04.959Z,79.15
2022-08-16T06:18:47.936Z,79.06
2022-08-16T06:21:24.028Z,78.71
2022-08-16T06:24:53.492Z,77.99
2022-08-16T06:27:27.074Z,77.21
2022-08-16T06:30:19.745Z,77.21
2022-08-16T06:32:53.177Z,77.16
2022-08-16T06:35:40.599Z,76.98
2022-08-16T06:38:34.605Z,76.49
2022-08-16T06:41:14.372Z,75.87
2022-08-16T06:44:06.828Z,75.08
2022-08-16T06:47:16.941Z,73.74
2022-08-16T06:50:11.243Z,74.06
2022-08-16T06:53:15.119Z,73.41
2022-08-16T06:56:14.450Z,72.74
2022-08-16T06:59:15.197Z,72.28
2022-08-16T07:02:04.541Z,71.40
2022-08-16T07:05:15.291Z,70.39
2022-08-16T07:08:11.393Z,70.38
2022-08-16T07:10:44.118Z,70.03
2022-08-16T07:13:57.992Z,67.98
2022-08-16T07:16:34.290Z,67.84
2022-08-16T07:20:04.077Z,67.55
2022-08-16T07:22:52.689Z,66.98
2022-08-16T07:25:40.163Z,66.52
2022-08-16T07:28:20.760Z,65.65
2022-08-16T07:30:58.128Z,65.24
2022-08-16T07:33:52.683Z,64.73
2022-08-16T07:36:45.141Z,65.02
2022-08-16T07:39:46.026Z,64.04
2022-08-16T07:42:35.063Z,63.61
2022-08-16T07:45:28.130Z,63.59
2022-08-16T07:48:16.258Z,62.26
2022-08-16T07:50:56.595Z,62.69
2022-08-16T07:53:43.677Z,62.97
2022-08-16T07:56:16.896Z,61.92
2022-08-16T07:58:55.441Z,61.47
2022-08-16T08:01:41.504Z,61.51
2022-08-16T08:04:14.925Z,61.36
2022-08-16T08:06:51.103Z,59.87
2022-08-16T08:09:25.813Z,60.16
2022-08-16T08:12:00.629Z,59.77
2022-08-16T08:14:37.182Z,59.58
2022-08-16T08:17:10.477Z,60.09
2022-08-16T08:19:45.680Z,60.28
2022-08-16T08:22:28.253Z,60.34
2022-08-16T08:25:03.810Z,59.42
2022-08-16T08:27:37.688Z,58.79
2022-08-16T08:30:51.103Z,58.31
2022-08-16T08:33:04.779Z,57.00
2022-08-16T08:36:01.620Z,56.51
2022-08-16T08:38:45.703Z,56.88
2022-08-16T08:41:37.711Z,57.42
2022-08-16T08:44:28.815Z,56.63
2022-08-16T08:47:11.615Z,56.86
2022-08-16T08:49:55.363Z,57.60
2022-08-16T08:52:34.916Z,58.15
2022-08-16T08:55:22.807Z,58.43
2022-08-16T08:57:57.836Z,59.24
2022-08-16T09:00:51.468Z,59.47
2022-08-16T09:03:27.917Z,59.80
2022-08-16T09:06:01.170Z,59.52
2022-08-16T09:08:35.994Z,59.58
2022-08-16T09:11:15.879Z,59.50
2022-08-16T09:13:51.386Z,59.39
2022-08-16T09:17:00.981Z,59.61
2022-08-16T09:19:32.179Z,59.90
2022-08-16T09:22:06.883Z,59.03
2022-08-16T09:24:58.153Z,60.16
2022-08-16T09:27:56.607Z,60.81
2022-08-16T09:30:34.427Z,61.20
2022-08-16T09:33:26.632Z,61.70
2022-08-16T09:36:12.175Z,61.75
2022-08-16T09:39:01.278Z,61.96
2022-08-16T09:41:56.425Z,62.31
2022-08-16T09:45:13.091Z,62.72
2022-08-16T09:47:56.108Z,62.96
2022-08-16T09:50:51.133Z,62.91
2022-08-16T09:53:53.876Z,62.73
2022-08-16T09:56:52.319Z,62.73
2022-08-16T09:59:30.519Z,63.00
2022-08-16T10:02:26.877Z,63.06
2022-08-16T10:05:12.150Z,62.83
2022-08-16T10:08:25.488Z,62.91
2022-08-16T10:11:15.226Z,62.84
2022-08-16T10:13:56.790Z,63.23
2022-08-16T10:16:50.770Z,63.85
2022-08-16T10:19:35.541Z,64.38
2022-08-16T10:22:12.731Z,64.89
2022-08-16T10:24:55.967Z,65.39
2022-08-16T10:27:46.131Z,65.96
2022-08-16T10:30:28.158Z,66.22
2022-08-16T10:33:13.673Z,66.07
2022-08-16T10:36:03.363Z,66.02
2022-08-16T10:38:56.541Z,66.19
2022-08-16T10:41:40.807Z,66.28
2022-08-16T10:44:14.497Z,66.00
2022-08-16T10:47:08.573Z,65.74
2022-08-16T10:50:00.708Z,65.71
2022-08-16T10:52:56.828Z,65.44
2022-08-16T10:55:44.742Z,65.23
2022-08-16T10:58:19.602Z,65.00
2022-08-16T11:01:43.369Z,64.28
2022-08-16T11:07:54.830Z,64.06
2022-08-16T11:11:05.325Z,63.58
2022-08-16T11:17:09.277Z,63.24
2022-08-16T11:20:41.356Z,62.61
2022-08-16T11:23:16.011Z,62.28
2022-08-16T11:26:22.867Z,62.38
2022-08-16T11:29:16.601Z,62.92
2022-08-16T11:32:10.196Z,62.95
2022-08-16T11:35:11.100Z,63.35
2022-08-16T11:38:46.600Z,62.21
2022-08-16T11:41:06.179Z,61.40
2022-08-16T11:43:59.149Z,60.57
2022-08-16T11:46:51.248Z,59.44
2022-08-16T11:49:46.046Z,59.76
2022-08-16T11:52:39.002Z,60.17
2022-08-16T11:55:18.735Z,59.83
2022-08-16T11:58:07.428Z,59.46
2022-08-16T12:01:00.347Z,59.66
2022-08-16T12:03:43.327Z,58.18
2022-08-16T12:06:36.198Z,57.50
2022-08-16T12:09:10.431Z,57.01
2022-08-16T12:11:55.613Z,56.71
2022-08-16T12:14:47.841Z,56.23
2022-08-16T12:17:43.423Z,56.50
2022-08-16T12:20:38.398Z,55.48
2022-08-16T12:23:31.669Z,55.42
2022-08-16T12:26:24.484Z,53.92
2022-08-16T12:29:01.041Z,52.84
2022-08-16T12:31:33.320Z,53.71
2022-08-16T12:34:08.048Z,52.89
2022-08-16T12:36:40.610Z,52.45
2022-08-16T12:39:20.561Z,52.56
2022-08-16T12:42:14.228Z,52.52
2022-08-16T12:45:13.719Z,52.30
2022-08-16T12:48:29.760Z,52.50
2022-08-16T12:50:56.926Z,52.86
2022-08-16T12:53:34.727Z,53.14
2022-08-16T12:56:15.683Z,52.71
2022-08-16T12:58:52.126Z,52.74
2022-08-16T13:01:26.986Z,52.74
2022-08-16T13:04:20.416Z,51.22
2022-08-16T13:06:55.084Z,51.23
2022-08-16T13:09:32.038Z,51.80
2022-08-16T13:12:26.812Z,50.68
2022-08-16T13:15:12.598Z,50.67
2022-08-16T13:17:50.228Z,50.13
2022-08-16T13:20:25.448Z,50.90
2022-08-16T13:23:06.411Z,50.28
2022-08-16T13:25:40.467Z,50.04
2022-08-16T13:28:17.173Z,50.86
2022-08-16T13:30:53.066Z,50.73
2022-08-16T13:33:30.669Z,51.38
2022-08-16T13:36:05.756Z,50.86
2022-08-16T13:38:39.581Z,50.89
2022-08-16T13:41:14.228Z,51.48
2022-08-16T13:43:57.380Z,51.23
2022-08-16T13:46:33.305Z,50.61
2022-08-16T13:49:05.857Z,48.51
2022-08-16T13:51:59.113Z,47.70
2022-08-16T13:54:32.033Z,48.12
2022-08-16T13:57:07.747Z,48.71
2022-08-16T13:59:57.618Z,48.87
2022-08-16T14:02:32.199Z,48.27
2022-08-16T14:05:08.764Z,47.93
2022-08-16T14:07:42.966Z,49.04
2022-08-16T14:10:18.475Z,49.14
2022-08-16T14:12:52.215Z,49.16
2022-08-16T14:15:26.846Z,49.36
2022-08-16T14:18:20.000Z,49.69
2022-08-16T14:20:55.510Z,49.85
2022-08-16T14:23:27.679Z,49.96
2022-08-16T14:26:01.185Z,49.96
2022-08-16T14:28:35.798Z,50.12
2022-08-16T14:31:09.709Z,50.28
2022-08-16T14:33:45.048Z,50.39
2022-08-16T14:36:37.184Z,50.63
2022-08-16T14:39:15.390Z,50.77
2022-08-16T14:41:53.800Z,50.86
2022-08-16T14:44:28.237Z,51.37
2022-08-16T14:47:03.113Z,52.10
2022-08-16T14:49:40.466Z,51.63
2022-08-16T14:52:44.563Z,52.03
2022-08-16T14:55:19.651Z,52.71
2022-08-16T14:57:54.757Z,52.53
2022-08-16T15:00:47.476Z,53.27
2022-08-16T15:03:22.493Z,53.87
2022-08-16T15:05:55.390Z,54.27
2022-08-16T15:08:36.849Z,54.22
2022-08-16T15:11:10.064Z,54.31
2022-08-16T15:13:42.541Z,53.94
2022-08-16T15:16:17.778Z,54.21
2022-08-16T15:19:10.638Z,53.94
2022-08-16T15:21:42.627Z,54.06
2022-08-16T15:24:16.630Z,54.28
2022-08-16T15:26:54.535Z,53.95
2022-08-16T15:29:29.535Z,54.55
2022-08-16T15:32:03.867Z,54.48
2022-08-16T15:34:44.943Z,54.97
2022-08-16T15:37:17.087Z,55.15
2022-08-16T15:39:49.198Z,55.76
2022-08-16T15:42:29.049Z,55.79
2022-08-16T15:45:14.649Z,56.42
2022-08-16T15:47:56.026Z,56.93
2022-08-16T15:50:28.851Z,57.01
2022-08-16T15:53:10.588Z,56.96
2022-08-16T15:55:49.597Z,56.12
2022-08-16T15:58:35.010Z,55.92
2022-08-16T16:01:21.809Z,56.00
2022-08-16T16:04:22.786Z,55.15
2022-08-16T16:07:09.567Z,53.35
2022-08-16T16:10:05.944Z,53.37
2022-08-16T16:12:50.968Z,53.28
2022-08-16T16:15:29.638Z,52.91
2022-08-16T16:18:05.251Z,53.50
2022-08-16T16:20:47.690Z,54.13
2022-08-16T16:23:23.514Z,53.94
2022-08-16T16:26:07.749Z,54.72
2022-08-16T16:29:05.105Z,55.48
2022-08-16T16:31:37.025Z,55.46
2022-08-16T16:34:11.423Z,55.71
2022-08-16T16:36:54.394Z,55.60
2022-08-16T16:39:26.263Z,55.28
2022-08-16T16:42:05.964Z,55.50
2022-08-16T16:44:51.070Z,55.88
2022-08-16T16:47:24.751Z,56.67
2022-08-16T16:49:56.783Z,57.87
2022-08-16T16:52:43.805Z,58.47
2022-08-16T16:55:17.022Z,58.68
2022-08-16T16:58:28.888Z,59.24
2022-08-16T17:01:10.408Z,59.39
2022-08-16T17:03:42.693Z,59.89
2022-08-16T17:06:14.797Z,60.72
2022-08-16T17:09:10.450Z,61.13
2022-08-16T17:11:47.932Z,61.95
2022-08-16T17:14:32.169Z,62.81
2022-08-16T17:17:13.290Z,62.91
2022-08-16T17:19:54.613Z,63.54
2022-08-16T17:22:32.955Z,63.76
2022-08-16T17:25:11.733Z,64.32
2022-08-16T17:27:53.988Z,64.73
2022-08-16T17:30:45.530Z,65.33
2022-08-16T17:33:20.640Z,65.89
2022-08-16T17:36:36.062Z,66.86
2022-08-16T17:39:07.917Z,67.59
2022-08-16T17:41:41.400Z,68.25
2022-08-16T17:44:19.592Z,68.33
2022-08-16T17:46:53.198Z,68.93
2022-08-16T17:49:25.204Z,69.05
2022-08-16T17:51:57.122Z,69.22
2022-08-16T17:54:30.711Z,69.60
2022-08-16T17:57:03.601Z,69.85
2022-08-16T17:59:40.567Z,70.12
2022-08-16T18:02:42.518Z,70.34
2022-08-16T18:05:40.119Z,70.46
2022-08-16T18:08:34.526Z,70.90
2022-08-16T18:11:30.270Z,70.86
2022-08-16T18:14:18.253Z,71.29
2022-08-16T18:17:00.798Z,71.72
2022-08-16T18:19:53.072Z,71.85
2022-08-16T18:22:47.874Z,72.34
2022-08-16T18:25:20.871Z,72.61
2022-08-16T18:28:03.417Z,72.69
2022-08-16T18:30:35.462Z,72.98
2022-08-16T18:33:07.789Z,73.21
2022-08-16T18:35:40.397Z,73.23
2022-08-16T18:38:15.593Z,73.66
2022-08-16T18:40:48.599Z,73.72
2022-08-16T18:44:22.289Z,73.96
2022-08-16T18:46:15.582Z,74.40
2022-08-16T18:48:47.613Z,74.42
2022-08-16T18:51:25.220Z,74.75
2022-08-16T18:53:59.984Z,75.02
2022-08-16T18:56:55.774Z,75.22
2022-08-16T18:59:28.696Z,75.61
2022-08-16T19:02:05.457Z,75.70
2022-08-16T19:04:55.213Z,75.95
2022-08-16T19:07:44.517Z,75.88
2022-08-16T19:10:17.052Z,76.16
2022-08-16T19:12:56.820Z,76.29
2022-08-16T19:15:32.999Z,76.24
2022-08-16T19:18:07.224Z,76.29
2022-08-16T19:20:50.404Z,76.25
2022-08-16T19:23:26.125Z,76.15
2022-08-16T19:26:01.610Z,75.98
2022-08-16T19:28:51.911Z,75.98
2022-08-16T19:31:36.021Z,75.96
2022-08-16T19:34:17.793Z,76.38
2022-08-16T19:36:59.828Z,76.51
2022-08-16T19:39:41.860Z,76.70
2022-08-16T19:42:18.552Z,76.93
2022-08-16T19:44:53.736Z,77.21
2022-08-16T19:47:26.087Z,77.23
2022-08-16T19:50:00.989Z,77.52
2022-08-16T19:52:35.854Z,77.31
2022-08-16T19:55:13.577Z,77.58
2022-08-16T19:57:55.417Z,77.72
2022-08-16T20:00:35.101Z,77.99
2022-08-16T20:03:21.089Z,78.30
2022-08-16T20:05:56.878Z,78.52
2022-08-16T20:08:31.623Z,78.60
2022-08-16T20:11:03.901Z,78.61
2022-08-16T20:13:37.321Z,78.80
2022-08-16T20:16:16.454Z,78.68
2022-08-16T20:19:01.430Z,78.91
2022-08-16T20:21:33.390Z,78.92
2022-08-16T20:24:33.434Z,78.99
2022-08-16T20:27:27.569Z,79.25
2022-08-16T20:30:20.138Z,78.93
2022-08-16T20:32:55.910Z,78.92
2022-08-16T20:35:31.355Z,79.30
2022-08-16T20:38:04.366Z,79.56
2022-08-16T20:40:39.062Z,79.86
2022-08-16T20:43:15.254Z,79.82
2022-08-16T20:45:48.515Z,79.95
2022-08-16T20:48:20.373Z,79.82
2022-08-16T20:50:55.772Z,79.76
2022-08-16T20:53:27.844Z,79.92
2022-08-16T20:56:00.469Z,80.09
2022-08-16T20:58:38.007Z,80.43
2022-08-16T21:01:13.146Z,80.95
2022-08-16T21:03:45.104Z,80.87
2022-08-16T21:06:19.218Z,81.28
2022-08-16T21:08:54.017Z,81.38
2022-08-16T21:11:28.668Z,81.19
2022-08-16T21:14:01.477Z,81.20
2022-08-16T21:16:44.886Z,81.35
2022-08-16T21:19:17.180Z,81.29
2022-08-16T21:21:52.454Z,81.00
2022-08-16T21:24:24.586Z,81.11
2022-08-16T21:27:09.892Z,81.45
2022-08-16T21:29:46.425Z,82.25
2022-08-16T21:32:35.556Z,82.45
2022-08-16T21:35:14.182Z,82.75
2022-08-16T21:37:59.942Z,83.13
2022-08-16T21:41:03.284Z,83.51
2022-08-16T21:43:35.781Z,83.37
2022-08-16T21:46:10.771Z,83.24
2022-08-16T21:49:04.712Z,83.46
2022-08-16T21:51:49.704Z,83.41
2022-08-16T21:54:25.146Z,83.23
2022-08-16T21:57:17.509Z,83.46
2022-08-16T22:00:16.420Z,83.36
2022-08-16T22:02:51.324Z,83.27
2022-08-16T22:05:35.185Z,83.30
2022-08-16T22:08:30.960Z,83.46
2022-08-16T22:11:12.072Z,83.54
2022-08-16T22:13:57.189Z,83.74
2022-08-16T22:16:41.479Z,83.62
2022-08-16T22:19:14.014Z,83.96
2022-08-16T22:21:58.914Z,84.07
2022-08-16T22:24:31.113Z,84.22
2022-08-16T22:27:14.613Z,84.36
2022-08-16T22:30:10.210Z,84.83
2022-08-16T22:32:55.022Z,85.32
2022-08-16T22:35:27.593Z,85.40
2022-08-16T22:38:55.083Z,85.73
2022-08-16T22:41:12.337Z,85.93
2022-08-16T22:44:09.428Z,86.01
2022-08-16T22:46:52.314Z,86.33
2022-08-16T22:49:34.673Z,86.53
2022-08-16T22:52:15.830Z,86.50
2022-08-16T22:55:12.375Z,86.61
2022-08-16T22:57:45.640Z,87.03
2022-08-16T23:00:20.314Z,87.13
2022-08-16T23:03:01.092Z,87.32
2022-08-16T23:05:38.732Z,87.14
2022-08-16T23:08:39.483Z,87.59
2022-08-16T23:11:21.242Z,87.83
2022-08-16T23:14:04.167Z,87.48
2022-08-16T23:16:47.527Z,87.73
2022-08-16T23:19:39.660Z,87.23
2022-08-16T23:23:19.538Z,87.42
2022-08-16T23:25:58.242Z,87.52
2022-08-16T23:28:43.093Z,87.72
2022-08-16T23:31:35.990Z,87.66
2022-08-16T23:34:21.855Z,87.81
2022-08-16T23:37:04.701Z,88.23
2022-08-16T23:39:56.910Z,87.96
2022-08-16T23:43:01.307Z,88.11
2022-08-16T23:45:46.149Z,88.09
2022-08-16T23:48:29.295Z,87.85
2022-08-16T23:51:14.791Z,87.88
2022-08-16T23:54:11.621Z,87.68
2022-08-16T23:57:05.464Z,87.65
2022-08-16T23:59:57.934Z,87.42
